»·PEaware :: N2102W KEGE-KASE

N2102W :: KEGE-KASE

FLIGHT INFORMATION

Flight Status: Arrived
Operator: Privately registered:
United States
More flights under this callsign
Pilot: Eric G. (5941)
Aircraft: Cessna 700 Citation Longitude
(C700)
More flights by this aircraft type
Origin: KEGE Eagle Co Regl
United States
Destination: KASE Aspen-Pitkin Co/Sardy
United States
More flights between these airports :: More routes between these airports
Route: BEVVR1 RUBAY DBL
File this flight plan on PilotEdge
Remarks: NA
Altitude:
(Current/Filed)
16,000ft
Speed:
(Current/Filed)
250kts
Departed: 04-Oct-20 03:44 PM
Arrived: 04-Oct-20 04:06 PM
Distance/Time
Traveled:
648nm/0:22
Distance/Time
To Go:
Arrived

Flight Plot

Page will automatically refresh every two minutes.

Flight plan parsing failed; only flown route is shown


Map Options




Map Legend


Flown Route
Filed Route
Departure Airport
Arrival Airport
Navaid (VOR, NDB)
Fix

Horizontal Profiles

Position Reports

Time Latitude Longitude Heading Altitude Ground
Speed
04-Oct-20 15:20 39.641930 -106.906394 350 6534ft 0kts
04-Oct-20 15:21 39.641930 -106.906394 350 6534ft 0kts
04-Oct-20 15:22 39.641930 -106.906394 350 6534ft 0kts
04-Oct-20 15:23 39.641930 -106.906394 350 6534ft 0kts
04-Oct-20 15:24 39.641930 -106.906394 350 6534ft 0kts
04-Oct-20 15:25 39.641930 -106.906394 350 6534ft 0kts
04-Oct-20 15:26 39.641930 -106.906394 350 6534ft 0kts
04-Oct-20 15:27 39.641930 -106.906394 350 6534ft 0kts
04-Oct-20 15:28 39.641930 -106.906394 350 6534ft 0kts
04-Oct-20 15:29 39.641930 -106.906394 350 6534ft 0kts
04-Oct-20 15:30 39.641930 -106.906394 350 6534ft 0kts
04-Oct-20 15:31 39.641930 -106.906394 350 6534ft 0kts
04-Oct-20 15:32 39.641930 -106.906394 350 6534ft 0kts
04-Oct-20 15:33 39.641930 -106.906394 350 6534ft 0kts
04-Oct-20 15:34 39.641930 -106.906394 350 6534ft 0kts
04-Oct-20 15:35 39.641930 -106.906394 350 6534ft 0kts
04-Oct-20 15:36 39.641930 -106.906394 350 6534ft 0kts
04-Oct-20 15:37 39.642755 -106.906068 77 6535ft 5kts
04-Oct-20 15:38 39.643155 -106.902298 82 6544ft 12kts
04-Oct-20 15:39 39.643351 -106.900894 77 6550ft 0kts
04-Oct-20 15:40 39.643502 -106.900288 48 6551ft 0kts
04-Oct-20 15:41 39.643588 -106.900193 31 6551ft 4kts
04-Oct-20 15:42 39.644481 -106.900546 266 6551ft 0kts
04-Oct-20 15:43 39.641962 -106.920102 261 6570ft 175kts
04-Oct-20 15:44 39.606377 -106.979277 220 10012ft 225kts
04-Oct-20 15:45 39.594093 -107.060978 283 13783ft 277kts
04-Oct-20 15:46 39.650304 -107.131844 341 16441ft 315kts
04-Oct-20 15:47 39.720515 -107.103299 47 16139ft 261kts
04-Oct-20 15:48 39.761194 -107.018697 62 17089ft 283kts
04-Oct-20 15:49 39.795560 -106.934531 62 16348ft 249kts
04-Oct-20 15:50 39.825825 -106.855745 67 15388ft 235kts
04-Oct-20 15:51 39.852007 -106.772201 69 15279ft 270kts
04-Oct-20 15:52 39.874411 -106.681812 73 15507ft 255kts
04-Oct-20 15:53 39.877844 -106.587682 102 15778ft 266kts
04-Oct-20 15:54 39.821914 -106.578060 232 15369ft 243kts
04-Oct-20 15:55 39.775045 -106.638720 216 15279ft 248kts
04-Oct-20 15:56 39.714171 -106.691487 212 15536ft 282kts
04-Oct-20 15:57 39.647710 -106.753046 218 15374ft 307kts
04-Oct-20 15:58 39.580831 -106.820349 210 15226ft 301kts
04-Oct-20 15:59 39.512704 -106.873648 209 15376ft 275kts
04-Oct-20 16:00 39.447143 -106.916603 193 14762ft 262kts
04-Oct-20 16:01 39.381349 -106.917094 175 12785ft 246kts
04-Oct-20 16:02 39.316076 -106.902994 173 10212ft 211kts
04-Oct-20 16:03 39.272822 -106.892976 156 8133ft 151kts
04-Oct-20 16:04 39.234865 -106.874408 160 7749ft 138kts
04-Oct-20 16:05 39.220320 -106.867472 142 7774ft 0kts
04-Oct-20 16:06 39.219945 -106.865983 153 7780ft 6kts
04-Oct-20 16:07 39.218874 -106.865165 131 7789ft 0kts
04-Oct-20 16:08 39.218874 -106.865165 131 7789ft 0kts
04-Oct-20 16:09 0.000407 0.013975 0 3ft 0kts
04-Oct-20 16:10 0.000407 0.013975 0 3ft 0kts
04-Oct-20 16:11 0.000407 0.013975 0 3ft 0kts
04-Oct-20 16:12 34.017233 -118.446303 327 148ft 0kts
04-Oct-20 16:13 34.017233 -118.446303 0 159ft 0kts
04-Oct-20 16:14 34.017233 -118.446303 0 159ft 0kts

Navigation Log

Ident Type
Flight plan parsing failed, navigation log unavailable